createdAt,value
2019-03-13T00:01:05.987Z,8.00
2019-03-13T00:03:32.751Z,8.00
2019-03-13T00:05:59.612Z,8.10
2019-03-13T00:08:26.399Z,8.10
2019-03-13T00:10:53.071Z,8.10
2019-03-13T00:13:20.045Z,8.20
2019-03-13T00:15:49.604Z,8.20
2019-03-13T00:18:15.564Z,8.20
2019-03-13T00:20:42.348Z,8.20
2019-03-13T00:23:09.152Z,8.30
2019-03-13T00:25:35.836Z,8.30
2019-03-13T00:28:02.662Z,8.30
2019-03-13T00:30:31.596Z,8.30
2019-03-13T00:33:01.581Z,8.30
2019-03-13T00:35:30.471Z,8.40
2019-03-13T00:37:59.100Z,8.40
2019-03-13T00:40:25.871Z,8.50
2019-03-13T00:42:52.752Z,8.50
2019-03-13T00:45:19.723Z,8.60
2019-03-13T00:47:46.340Z,8.60
2019-03-13T00:50:32.752Z,8.60
2019-03-13T00:52:59.446Z,8.60
2019-03-13T00:55:26.256Z,8.60
2019-03-13T00:57:53.067Z,8.60
2019-03-13T01:00:37.329Z,8.60
2019-03-13T01:03:05.050Z,8.60
2019-03-13T01:05:40.274Z,8.60
2019-03-13T01:08:07.061Z,8.60
2019-03-13T01:10:33.720Z,8.60
2019-03-13T01:13:00.309Z,8.60
2019-03-13T01:15:29.573Z,8.50
2019-03-13T01:17:58.699Z,8.50
2019-03-13T01:20:25.301Z,8.50
2019-03-13T01:22:52.063Z,8.50
2019-03-13T01:25:18.711Z,8.50
2019-03-13T01:27:45.453Z,8.50
2019-03-13T01:30:12.804Z,8.40
2019-03-13T01:32:48.639Z,8.40
2019-03-13T01:35:19.369Z,8.40
2019-03-13T01:37:46.074Z,8.30
2019-03-13T01:40:12.955Z,8.20
2019-03-13T01:42:39.614Z,8.00
2019-03-13T01:45:06.724Z,7.70
2019-03-13T01:47:33.407Z,7.50
2019-03-13T01:50:00.036Z,7.20
2019-03-13T01:52:26.756Z,7.10
2019-03-13T01:54:53.549Z,7.00
2019-03-13T01:57:20.251Z,6.90
2019-03-13T01:59:46.881Z,6.80
2019-03-13T02:02:13.516Z,6.70
2019-03-13T02:04:40.502Z,6.60
2019-03-13T02:07:07.248Z,6.50
2019-03-13T02:09:33.839Z,6.50
2019-03-13T02:12:00.792Z,6.40
2019-03-13T02:14:29.500Z,6.20
2019-03-13T02:16:56.128Z,6.30
2019-03-13T02:19:22.901Z,6.20
2019-03-13T02:21:49.508Z,6.10
2019-03-13T02:24:16.203Z,6.00
2019-03-13T02:26:42.853Z,6.10
2019-03-13T02:29:09.559Z,6.00
2019-03-13T02:31:36.157Z,5.90
2019-03-13T02:34:02.928Z,6.00
2019-03-13T02:36:29.641Z,6.00
2019-03-13T02:38:56.241Z,6.00
2019-03-13T02:41:22.895Z,6.00
2019-03-13T02:43:49.569Z,6.00
2019-03-13T02:46:16.181Z,6.00
2019-03-13T02:48:42.784Z,6.00
2019-03-13T02:51:09.392Z,6.00
2019-03-13T02:53:35.976Z,6.10
2019-03-13T02:56:03.075Z,6.10
2019-03-13T02:58:29.974Z,6.10
2019-03-13T03:01:11.623Z,6.10
2019-03-13T03:03:42.194Z,6.10
2019-03-13T03:06:08.873Z,6.10
2019-03-13T03:08:35.499Z,6.10
2019-03-13T03:11:02.137Z,6.10
2019-03-13T03:13:28.907Z,6.10
2019-03-13T03:15:55.578Z,6.10
2019-03-13T03:18:22.702Z,6.10
2019-03-13T03:20:49.686Z,6.20
2019-03-13T03:23:16.435Z,6.30
2019-03-13T03:25:43.146Z,6.30
2019-03-13T03:28:09.769Z,6.30
2019-03-13T03:30:36.385Z,6.30
2019-03-13T03:33:03.004Z,6.30
2019-03-13T03:35:30.012Z,6.50
2019-03-13T03:37:56.618Z,6.60
2019-03-13T03:40:23.713Z,6.60
2019-03-13T03:42:50.562Z,6.60
2019-03-13T03:45:17.607Z,6.50
2019-03-13T03:47:44.313Z,6.50
2019-03-13T03:50:11.045Z,6.40
2019-03-13T03:52:37.754Z,6.40
2019-03-13T03:55:04.877Z,6.40
2019-03-13T03:57:31.576Z,6.30
2019-03-13T03:59:58.645Z,6.30
2019-03-13T04:02:25.262Z,6.20
2019-03-13T04:04:51.982Z,6.20
2019-03-13T04:07:18.681Z,6.20
2019-03-13T04:09:45.377Z,6.20
2019-03-13T04:12:12.081Z,6.10
2019-03-13T04:14:38.901Z,6.10
2019-03-13T04:17:05.736Z,6.10
2019-03-13T04:19:32.358Z,6.10
2019-03-13T04:21:59.006Z,6.10
2019-03-13T04:24:25.734Z,6.10
2019-03-13T04:26:52.432Z,6.00
2019-03-13T04:29:19.580Z,6.00
2019-03-13T04:31:46.219Z,5.90
2019-03-13T04:34:14.236Z,6.00
2019-03-13T04:36:41.004Z,6.00
2019-03-13T04:39:07.671Z,6.00
2019-03-13T04:41:34.298Z,6.00
2019-03-13T04:44:01.164Z,6.00
2019-03-13T04:46:27.758Z,5.90
2019-03-13T04:48:54.420Z,6.00
2019-03-13T04:51:21.055Z,5.90
2019-03-13T04:53:47.630Z,5.90
2019-03-13T04:56:14.242Z,5.90
2019-03-13T04:58:40.872Z,5.90
2019-03-13T05:01:07.623Z,5.90
2019-03-13T05:03:34.435Z,5.90
2019-03-13T05:06:07.330Z,5.90
2019-03-13T05:08:44.949Z,5.80
2019-03-13T05:11:08.414Z,5.80
2019-03-13T05:13:35.008Z,5.80
2019-03-13T05:16:01.603Z,5.80
2019-03-13T05:18:28.219Z,5.70
2019-03-13T05:20:54.863Z,5.70
2019-03-13T05:23:21.548Z,5.60
2019-03-13T05:25:48.240Z,5.40
2019-03-13T05:28:15.168Z,5.30
2019-03-13T05:30:41.789Z,5.20
2019-03-13T05:33:08.413Z,5.20
2019-03-13T05:35:35.116Z,5.20
2019-03-13T05:38:01.782Z,5.20
2019-03-13T05:40:28.490Z,5.30
2019-03-13T05:42:55.116Z,5.30
2019-03-13T05:45:21.734Z,5.40
2019-03-13T05:47:48.331Z,5.40
2019-03-13T05:50:15.339Z,5.30
2019-03-13T05:52:42.075Z,5.20
2019-03-13T05:55:08.749Z,5.20
2019-03-13T05:57:35.480Z,5.10
2019-03-13T06:00:02.603Z,5.20
2019-03-13T06:02:29.343Z,5.10
2019-03-13T06:04:56.124Z,5.00
2019-03-13T06:07:22.704Z,5.00
2019-03-13T06:09:49.361Z,5.00
2019-03-13T06:12:16.198Z,5.20
2019-03-13T06:14:42.951Z,5.30
2019-03-13T06:17:09.537Z,5.60
2019-03-13T06:19:36.236Z,5.60
2019-03-13T06:22:02.967Z,5.70
2019-03-13T06:24:29.689Z,5.80
2019-03-13T06:26:56.307Z,5.80
2019-03-13T06:29:22.929Z,5.90
2019-03-13T06:31:49.799Z,5.80
2019-03-13T06:34:16.398Z,5.90
2019-03-13T06:36:42.995Z,5.90
2019-03-13T06:39:09.641Z,6.00
2019-03-13T06:41:36.277Z,6.00
2019-03-13T06:44:03.231Z,6.00
2019-03-13T06:46:29.943Z,6.00
2019-03-13T06:48:56.590Z,6.00
2019-03-13T06:51:23.288Z,6.00
2019-03-13T06:53:49.901Z,6.10
2019-03-13T06:56:16.515Z,6.00
2019-03-13T06:58:58.680Z,6.00
2019-03-13T07:01:32.169Z,6.10
2019-03-13T07:04:17.373Z,6.10
2019-03-13T07:07:02.512Z,6.10
2019-03-13T07:09:39.531Z,6.10
2019-03-13T07:12:22.124Z,5.90
2019-03-13T07:15:00.101Z,6.10
2019-03-13T07:17:40.714Z,6.90
2019-03-13T07:20:26.888Z,7.60
2019-03-13T07:23:12.211Z,7.90
2019-03-13T07:25:59.602Z,7.70
2019-03-13T07:28:38.235Z,7.50
2019-03-13T07:31:17.245Z,7.30
2019-03-13T07:33:56.898Z,7.20
2019-03-13T07:36:45.890Z,7.10
2019-03-13T07:39:30.736Z,7.20
2019-03-13T07:42:14.523Z,7.30
2019-03-13T07:45:19.044Z,7.40
2019-03-13T07:47:53.305Z,7.80
2019-03-13T07:50:29.855Z,8.70
2019-03-13T07:53:16.185Z,9.00
2019-03-13T07:56:01.500Z,9.20
2019-03-13T07:58:53.886Z,9.20
2019-03-13T08:01:28.848Z,8.50
2019-03-13T08:04:20.932Z,8.40
2019-03-13T08:06:59.876Z,8.60
2019-03-13T08:09:41.685Z,9.10
2019-03-13T08:12:26.783Z,9.90
2019-03-13T08:15:08.661Z,10.50
2019-03-13T08:17:58.320Z,10.90
2019-03-13T08:20:36.947Z,11.20
2019-03-13T08:23:15.479Z,11.00
2019-03-13T08:26:02.149Z,11.10
2019-03-13T08:28:44.130Z,11.70
2019-03-13T08:31:20.607Z,11.20
2019-03-13T08:34:07.233Z,10.70
2019-03-13T08:36:48.931Z,11.20
2019-03-13T08:39:31.489Z,11.50
2019-03-13T08:42:07.526Z,11.10
2019-03-13T08:44:53.047Z,10.30
2019-03-13T08:47:33.724Z,10.10
2019-03-13T08:50:09.221Z,10.30
2019-03-13T08:52:45.162Z,10.40
2019-03-13T08:55:31.681Z,10.60
2019-03-13T08:58:21.155Z,11.10
2019-03-13T09:01:19.412Z,11.20
2019-03-13T09:04:04.781Z,11.60
2019-03-13T09:06:39.311Z,11.50
2019-03-13T09:09:24.680Z,11.70
2019-03-13T09:12:11.228Z,11.70
2019-03-13T09:14:56.488Z,12.00
2019-03-13T09:17:40.587Z,12.30
2019-03-13T09:20:25.908Z,11.70
2019-03-13T09:23:15.271Z,11.00
2019-03-13T09:25:53.575Z,10.40
2019-03-13T09:28:43.397Z,11.00
2019-03-13T09:31:20.245Z,11.70
2019-03-13T09:34:06.373Z,12.20
2019-03-13T09:36:49.081Z,12.60
2019-03-13T09:39:25.142Z,13.20
2019-03-13T09:42:10.161Z,12.80
2019-03-13T09:44:56.407Z,12.40
2019-03-13T09:47:30.971Z,12.40
2019-03-13T09:50:24.475Z,12.40
2019-03-13T09:52:57.947Z,12.00
2019-03-13T09:55:31.153Z,11.90
2019-03-13T09:58:17.938Z,11.70
2019-03-13T10:01:07.466Z,11.80
2019-03-13T10:03:40.393Z,11.80
2019-03-13T10:06:22.442Z,11.30
2019-03-13T10:08:57.373Z,11.00
2019-03-13T10:11:29.628Z,10.70
2019-03-13T10:14:07.057Z,10.70
2019-03-13T10:16:42.693Z,11.10
2019-03-13T10:19:25.287Z,11.40
2019-03-13T10:22:00.711Z,11.40
2019-03-13T10:24:44.563Z,12.00
2019-03-13T10:27:34.166Z,12.50
2019-03-13T10:30:21.338Z,12.80
2019-03-13T10:33:04.036Z,12.30
2019-03-13T10:35:50.490Z,11.70
2019-03-13T10:38:35.102Z,11.50
2019-03-13T10:41:13.648Z,11.30
2019-03-13T10:43:53.034Z,11.20
2019-03-13T10:46:42.438Z,11.20
2019-03-13T10:49:27.526Z,11.20
2019-03-13T10:52:00.824Z,11.30
2019-03-13T10:54:49.748Z,12.30
2019-03-13T10:57:28.480Z,13.10
2019-03-13T11:00:06.489Z,13.60
2019-03-13T11:02:58.140Z,13.50
2019-03-13T11:05:43.810Z,13.60
2019-03-13T11:08:30.228Z,13.80
2019-03-13T11:11:15.303Z,13.60
2019-03-13T11:13:47.360Z,13.70
2019-03-13T11:16:32.808Z,13.90
2019-03-13T11:19:07.005Z,13.50
2019-03-13T11:22:05.775Z,13.90
2019-03-13T11:24:47.685Z,13.40
2019-03-13T11:27:25.162Z,13.60
2019-03-13T11:30:20.893Z,12.90
2019-03-13T11:32:55.180Z,12.80
2019-03-13T11:35:42.335Z,12.70
2019-03-13T11:38:34.810Z,12.30
2019-03-13T11:41:39.351Z,12.10
2019-03-13T11:44:28.733Z,12.10
2019-03-13T11:47:03.458Z,11.90
2019-03-13T11:49:50.793Z,11.90
2019-03-13T11:52:28.822Z,11.70
2019-03-13T11:55:02.846Z,11.30
2019-03-13T11:58:00.243Z,11.40
2019-03-13T12:00:36.232Z,11.30
2019-03-13T12:03:12.409Z,11.40
2019-03-13T12:06:01.629Z,11.00
2019-03-13T12:08:45.945Z,10.80
2019-03-13T12:11:31.302Z,10.70
2019-03-13T12:14:22.737Z,10.70
2019-03-13T12:16:54.825Z,10.60
2019-03-13T12:19:39.252Z,10.60
2019-03-13T12:22:24.623Z,10.40
2019-03-13T12:25:02.026Z,10.40
2019-03-13T12:27:47.309Z,10.50
2019-03-13T12:30:42.949Z,10.50
2019-03-13T12:33:22.586Z,10.50
2019-03-13T12:36:14.594Z,10.40
2019-03-13T12:38:51.692Z,10.30
2019-03-13T12:41:42.399Z,10.20
2019-03-13T12:44:26.750Z,10.30
2019-03-13T12:47:28.614Z,10.30
2019-03-13T12:50:05.081Z,10.30
2019-03-13T12:52:50.307Z,10.30
2019-03-13T12:55:23.137Z,10.40
2019-03-13T12:58:14.297Z,10.40
2019-03-13T13:00:59.293Z,10.30
2019-03-13T13:03:34.030Z,10.30
2019-03-13T13:06:15.504Z,10.30
2019-03-13T13:08:54.904Z,10.30
2019-03-13T13:11:35.433Z,10.20
2019-03-13T13:14:10.249Z,10.10
2019-03-13T13:16:55.229Z,10.10
2019-03-13T13:19:21.920Z,10.20
2019-03-13T13:21:48.530Z,10.30
2019-03-13T13:24:15.167Z,10.10
2019-03-13T13:26:41.822Z,10.10
2019-03-13T13:29:08.469Z,10.20
2019-03-13T13:31:35.275Z,10.30
2019-03-13T13:34:01.902Z,10.10
2019-03-13T13:36:28.568Z,10.10
2019-03-13T13:38:55.219Z,10.10
2019-03-13T13:41:21.845Z,10.10
2019-03-13T13:43:48.455Z,10.10
2019-03-13T13:46:18.169Z,10.10
2019-03-13T13:48:44.962Z,10.30
2019-03-13T13:51:11.557Z,10.40
2019-03-13T13:53:38.144Z,10.40
2019-03-13T13:56:04.739Z,10.40
2019-03-13T13:58:31.421Z,10.40
2019-03-13T14:00:58.142Z,10.40
2019-03-13T14:03:24.767Z,10.40
2019-03-13T14:05:51.783Z,10.40
2019-03-13T14:08:18.740Z,10.50
2019-03-13T14:10:45.340Z,10.50
2019-03-13T14:13:12.049Z,10.50
2019-03-13T14:15:38.812Z,10.50
2019-03-13T14:18:05.503Z,10.40
2019-03-13T14:20:32.211Z,10.30
2019-03-13T14:22:59.021Z,10.30
2019-03-13T14:25:25.617Z,10.30
2019-03-13T14:27:52.319Z,10.20
2019-03-13T14:30:19.961Z,10.20
2019-03-13T14:32:46.568Z,10.30
2019-03-13T14:35:13.208Z,10.20
2019-03-13T14:37:39.972Z,10.30
2019-03-13T14:40:07.582Z,10.30
2019-03-13T14:42:34.495Z,10.20
2019-03-13T14:45:01.169Z,10.20
2019-03-13T14:47:27.859Z,10.20
2019-03-13T14:49:54.460Z,10.30
2019-03-13T14:52:21.124Z,10.30
2019-03-13T14:54:48.063Z,10.20
2019-03-13T14:57:14.675Z,10.20
2019-03-13T14:59:41.309Z,10.10
2019-03-13T15:02:07.896Z,10.10
2019-03-13T15:04:34.846Z,10.10
2019-03-13T15:07:01.563Z,10.00
2019-03-13T15:09:28.195Z,10.00
2019-03-13T15:11:54.821Z,10.00
2019-03-13T15:14:21.522Z,10.00
2019-03-13T15:16:48.526Z,10.00
2019-03-13T15:19:15.210Z,10.00
2019-03-13T15:21:41.945Z,9.90
2019-03-13T15:24:08.624Z,9.90
2019-03-13T15:26:35.257Z,9.90
2019-03-13T15:29:01.881Z,9.90
2019-03-13T15:31:28.555Z,9.90
2019-03-13T15:33:55.211Z,9.90
2019-03-13T15:36:21.868Z,9.90
2019-03-13T15:38:48.463Z,9.90
2019-03-13T15:41:15.054Z,9.80
2019-03-13T15:43:41.930Z,9.90
2019-03-13T15:46:08.585Z,9.80
2019-03-13T15:48:36.277Z,9.90
2019-03-13T15:51:03.050Z,9.80
2019-03-13T15:53:29.771Z,9.80
2019-03-13T15:55:56.685Z,9.70
2019-03-13T15:58:23.609Z,9.70
2019-03-13T16:00:50.205Z,9.60
2019-03-13T16:03:16.787Z,9.70
2019-03-13T16:05:43.485Z,9.80
2019-03-13T16:08:10.200Z,9.70
2019-03-13T16:10:36.841Z,9.70
2019-03-13T16:13:04.731Z,9.70
2019-03-13T16:15:33.187Z,9.70
2019-03-13T16:17:59.845Z,9.70
2019-03-13T16:20:26.479Z,9.70
2019-03-13T16:22:55.909Z,9.70
2019-03-13T16:25:22.576Z,9.70
2019-03-13T16:27:49.649Z,9.60
2019-03-13T16:30:17.276Z,9.70
2019-03-13T16:32:45.993Z,9.60
2019-03-13T16:35:12.841Z,9.60
2019-03-13T16:37:39.739Z,9.60
2019-03-13T16:40:07.904Z,9.60
2019-03-13T16:42:34.523Z,9.40
2019-03-13T16:45:01.219Z,9.30
2019-03-13T16:47:27.928Z,9.30
2019-03-13T16:49:54.516Z,9.20
2019-03-13T16:52:21.237Z,9.20
2019-03-13T16:54:47.893Z,9.10
2019-03-13T16:57:14.519Z,9.10
2019-03-13T16:59:41.151Z,9.10
2019-03-13T17:02:07.758Z,9.10
2019-03-13T17:04:34.385Z,9.10
2019-03-13T17:07:01.246Z,9.00
2019-03-13T17:09:27.860Z,9.00
2019-03-13T17:11:55.058Z,8.90
2019-03-13T17:14:21.661Z,8.80
2019-03-13T17:16:48.264Z,8.80
2019-03-13T17:19:15.131Z,8.70
2019-03-13T17:21:41.965Z,8.60
2019-03-13T17:24:08.809Z,8.60
2019-03-13T17:26:35.415Z,8.60
2019-03-13T17:29:02.062Z,8.50
2019-03-13T17:31:28.636Z,8.50
2019-03-13T17:33:55.428Z,8.50
2019-03-13T17:36:22.049Z,8.50
2019-03-13T17:38:48.635Z,8.60
2019-03-13T17:41:15.339Z,8.70
2019-03-13T17:43:42.049Z,8.70
2019-03-13T17:46:08.762Z,8.70
2019-03-13T17:48:35.459Z,8.60
2019-03-13T17:51:02.229Z,8.60
2019-03-13T17:53:29.881Z,8.60
2019-03-13T17:55:56.516Z,8.50
2019-03-13T17:58:23.181Z,8.50
2019-03-13T18:00:51.086Z,8.50
2019-03-13T18:03:18.544Z,8.60
2019-03-13T18:05:45.143Z,8.60
2019-03-13T18:08:11.881Z,8.60
2019-03-13T18:10:38.530Z,8.50
2019-03-13T18:13:05.224Z,8.50
2019-03-13T18:15:32.182Z,8.50
2019-03-13T18:17:59.146Z,8.40
2019-03-13T18:20:25.756Z,8.40
2019-03-13T18:22:52.339Z,8.40
2019-03-13T18:25:19.084Z,8.40
2019-03-13T18:27:45.814Z,8.40
2019-03-13T18:30:17.385Z,8.50
2019-03-13T18:32:44.363Z,8.50
2019-03-13T18:35:11.368Z,8.50
2019-03-13T18:37:38.048Z,8.50
2019-03-13T18:40:05.435Z,8.40
2019-03-13T18:42:32.074Z,8.20
2019-03-13T18:44:58.836Z,8.00
2019-03-13T18:47:25.639Z,7.70
2019-03-13T18:49:52.258Z,7.50
2019-03-13T18:52:19.071Z,7.30
2019-03-13T18:54:45.985Z,7.20
2019-03-13T18:57:12.617Z,7.10
2019-03-13T18:59:39.243Z,7.00
2019-03-13T19:02:06.065Z,6.90
2019-03-13T19:04:32.716Z,6.90
2019-03-13T19:07:00.310Z,6.80
2019-03-13T19:09:29.323Z,6.70
2019-03-13T19:11:55.834Z,6.60
2019-03-13T19:14:22.592Z,6.60
2019-03-13T19:16:49.172Z,6.50
2019-03-13T19:19:15.757Z,6.40
2019-03-13T19:21:43.418Z,6.40
2019-03-13T19:24:11.067Z,6.40
2019-03-13T19:26:37.796Z,6.40
2019-03-13T19:29:04.420Z,6.40
2019-03-13T19:34:31.050Z,6.40
2019-03-13T19:36:57.640Z,6.40
2019-03-13T19:39:24.472Z,6.40
2019-03-13T19:41:52.128Z,6.40
2019-03-13T19:44:19.190Z,6.40
2019-03-13T19:46:45.792Z,6.40
2019-03-13T19:49:12.496Z,6.40
2019-03-13T19:51:39.225Z,6.40
2019-03-13T19:54:05.961Z,6.40
2019-03-13T19:56:35.068Z,6.50
2019-03-13T19:59:01.297Z,6.50
2019-03-13T20:01:29.280Z,6.60
2019-03-13T20:03:55.891Z,6.60
2019-03-13T20:06:22.614Z,6.60
2019-03-13T20:08:49.249Z,6.70
2019-03-13T20:11:15.944Z,6.80
2019-03-13T20:13:44.689Z,6.80
2019-03-13T20:16:11.381Z,6.90
2019-03-13T20:18:37.991Z,6.90
2019-03-13T20:21:04.588Z,6.90
2019-03-13T20:23:31.236Z,7.00
2019-03-13T20:25:57.848Z,7.00
2019-03-13T20:28:24.496Z,7.00
2019-03-13T20:30:51.184Z,7.00
2019-03-13T20:33:18.027Z,7.00
2019-03-13T20:35:44.622Z,6.90
2019-03-13T20:38:11.237Z,7.00
2019-03-13T20:40:37.929Z,7.10
2019-03-13T20:43:04.616Z,7.00
2019-03-13T20:45:31.200Z,7.00
2019-03-13T20:47:58.719Z,7.00
2019-03-13T20:50:35.899Z,6.90
2019-03-13T20:52:54.100Z,6.90
2019-03-13T20:55:20.899Z,6.90
2019-03-13T20:57:47.528Z,6.90
2019-03-13T21:00:20.265Z,6.80
2019-03-13T21:02:47.648Z,6.70
2019-03-13T21:05:14.239Z,6.70
2019-03-13T21:07:40.865Z,6.70
2019-03-13T21:10:08.247Z,6.60
2019-03-13T21:12:34.835Z,6.70
2019-03-13T21:15:01.466Z,6.70
2019-03-13T21:17:28.086Z,6.70
2019-03-13T21:19:54.928Z,6.80
2019-03-13T21:22:21.519Z,6.90
2019-03-13T21:24:48.112Z,6.90
2019-03-13T21:27:14.706Z,7.00
2019-03-13T21:29:41.446Z,6.90
2019-03-13T21:32:08.190Z,6.80
2019-03-13T21:34:34.791Z,6.60
2019-03-13T21:37:01.385Z,6.50
2019-03-13T21:39:28.265Z,6.30
2019-03-13T21:41:54.932Z,6.20
2019-03-13T21:44:21.557Z,6.10
2019-03-13T21:46:48.213Z,6.00
2019-03-13T21:49:14.818Z,6.00
2019-03-13T21:51:41.589Z,6.00
2019-03-13T21:54:08.271Z,6.00
2019-03-13T21:56:35.098Z,6.00
2019-03-13T21:59:01.870Z,6.10
2019-03-13T22:01:28.496Z,6.10
2019-03-13T22:03:55.118Z,6.00
2019-03-13T22:06:28.597Z,6.00
2019-03-13T22:08:50.464Z,5.90
2019-03-13T22:11:17.040Z,5.90
2019-03-13T22:13:43.640Z,5.90
2019-03-13T22:16:10.286Z,5.90
2019-03-13T22:18:36.897Z,5.90
2019-03-13T22:21:03.547Z,5.90
2019-03-13T22:23:30.211Z,5.90
2019-03-13T22:25:56.806Z,5.90
2019-03-13T22:28:23.413Z,5.90
2019-03-13T22:30:50.021Z,5.70
2019-03-13T22:33:16.640Z,5.50
2019-03-13T22:35:43.321Z,5.50
2019-03-13T22:38:09.939Z,5.50
2019-03-13T22:40:36.596Z,5.50
2019-03-13T22:43:03.331Z,5.50
2019-03-13T22:45:30.130Z,5.50
2019-03-13T22:47:57.852Z,5.60
2019-03-13T22:50:24.576Z,5.60
2019-03-13T22:52:51.614Z,5.60
2019-03-13T22:55:18.419Z,5.60
2019-03-13T22:57:45.165Z,5.60
2019-03-13T23:00:24.532Z,5.60
2019-03-13T23:02:51.544Z,5.60
2019-03-13T23:05:18.341Z,5.60
2019-03-13T23:07:45.996Z,5.60
2019-03-13T23:10:26.619Z,5.60
2019-03-13T23:12:53.209Z,5.70
2019-03-13T23:15:19.804Z,5.70
2019-03-13T23:17:46.416Z,5.70
2019-03-13T23:20:13.115Z,5.70
2019-03-13T23:22:39.747Z,5.70
2019-03-13T23:25:06.440Z,5.80
2019-03-13T23:27:33.067Z,5.80
2019-03-13T23:29:59.786Z,5.80
2019-03-13T23:32:26.517Z,5.80
2019-03-13T23:34:53.137Z,5.80
2019-03-13T23:37:19.720Z,5.90
2019-03-13T23:39:46.353Z,5.90
2019-03-13T23:42:13.535Z,5.90
2019-03-13T23:44:40.263Z,5.90
2019-03-13T23:47:07.125Z,5.90
2019-03-13T23:49:33.753Z,5.90
2019-03-13T23:52:02.792Z,5.90
2019-03-13T23:54:28.865Z,5.90
2019-03-13T23:56:55.565Z,5.90
2019-03-13T23:59:22.202Z,5.90
